Time;durP1;ratioP1;P1;durP2;ratioP2;P2;SDS_P1;SDS_P2;PMS_P1;PMS_P2;Temp;Humidity;BMP_temperature;BMP_pressure;BME280_temperature;BME280_humidity;BME280_pressure;Samples;Min_cycle;Max_cycle;Signal;HPM_P1;HPM_P2
2021/08/02 00:01:34;;;;;;;2.90;0.70;;;;;;;;;;5025606;28;20003;-76
2021/08/02 00:04:09;;;;;;;2.28;0.70;;;;;;;;;;5025835;28;20061;-73
2021/08/02 00:06:49;;;;;;;2.67;0.90;;;;;;;;;;5024648;28;21226;-74
2021/08/02 00:09:17;;;;;;;2.25;0.80;;;;;;;;;;5023357;28;20069;-73
2021/08/02 00:11:58;;;;;;;2.40;0.95;;;;;;;;;;5025257;28;20053;-74
2021/08/02 00:14:25;;;;;;;5.18;1.38;;;;;;;;;;5023540;28;20068;-75
2021/08/02 00:16:51;;;;;;;1.10;0.40;;;;;;;;;;5023924;28;20068;-74
2021/08/02 00:19:18;;;;;;;1.02;0.45;;;;;;;;;;5024364;28;20501;-75
2021/08/02 00:21:45;;;;;;;3.15;0.70;;;;;;;;;;5024342;28;20076;-74
2021/08/02 00:24:12;;;;;;;2.53;0.80;;;;;;;;;;5022755;28;20126;-74
2021/08/02 00:26:39;;;;;;;1.17;0.60;;;;;;;;;;5021694;28;20057;-74
2021/08/02 00:29:06;;;;;;;1.77;0.75;;;;;;;;;;5024450;28;20061;-74
2021/08/02 00:31:32;;;;;;;1.55;0.60;;;;;;;;;;5023272;28;20533;-74
2021/08/02 00:33:59;;;;;;;1.98;0.60;;;;;;;;;;5021336;28;20065;-74
2021/08/02 00:36:44;;;;;;;1.60;0.60;;;;;;;;;;5050933;28;20076;-74
2021/08/02 00:39:20;;;;;;;2.45;0.68;;;;;;;;;;5022016;28;20057;-74
2021/08/02 00:41:47;;;;;;;2.88;0.70;;;;;;;;;;5024748;28;20123;-74
2021/08/02 00:44:44;;;;;;;5.72;1.08;;;;;;;;;;5022308;28;20365;-75
2021/08/02 00:47:12;;;;;;;2.63;0.63;;;;;;;;;;5023144;28;20056;-75
2021/08/02 00:49:42;;;;;;;1.90;0.75;;;;;;;;;;5024510;28;20053;-74
2021/08/02 00:52:09;;;;;;;1.42;0.70;;;;;;;;;;5023152;28;21203;-75
2021/08/02 00:54:37;;;;;;;2.45;0.70;;;;;;;;;;5055707;28;20061;-74
2021/08/02 00:57:04;;;;;;;3.13;1.00;;;;;;;;;;5022765;28;20076;-74
2021/08/02 00:59:31;;;;;;;1.38;0.55;;;;;;;;;;5024121;28;20058;-74
2021/08/02 01:02:00;;;;;;;1.58;0.70;;;;;;;;;;5025326;28;20077;-74
2021/08/02 01:04:27;;;;;;;1.98;0.70;;;;;;;;;;5024877;28;20057;-74
2021/08/02 01:06:53;;;;;;;0.98;0.50;;;;;;;;;;5024794;28;20715;-74
2021/08/02 01:09:21;;;;;;;2.67;0.60;;;;;;;;;;5052275;28;20132;-75
2021/08/02 01:11:49;;;;;;;1.30;0.50;;;;;;;;;;5021620;28;20073;-74
2021/08/02 01:14:16;;;;;;;2.45;0.60;;;;;;;;;;5055678;28;20501;-75
2021/08/02 01:16:42;;;;;;;2.58;0.63;;;;;;;;;;5024505;28;20053;-75
2021/08/02 01:19:11;;;;;;;1.55;0.75;;;;;;;;;;5023197;28;20076;-74
2021/08/02 01:21:40;;;;;;;1.52;0.60;;;;;;;;;;5023624;28;20092;-74
2021/08/02 01:24:11;;;;;;;1.85;0.70;;;;;;;;;;5022620;28;20448;-73
2021/08/02 01:26:41;;;;;;;0.85;0.50;;;;;;;;;;5021431;28;20057;-73
2021/08/02 01:29:26;;;;;;;1.88;0.80;;;;;;;;;;5023524;28;20061;-73
2021/08/02 01:31:52;;;;;;;1.25;0.50;;;;;;;;;;5024857;28;20065;-74
2021/08/02 01:34:19;;;;;;;1.27;0.40;;;;;;;;;;5020910;28;20061;-74
2021/08/02 01:36:45;;;;;;;2.97;0.73;;;;;;;;;;5023797;28;20508;-74
2021/08/02 01:39:11;;;;;;;1.45;0.70;;;;;;;;;;5024180;28;20527;-74
2021/08/02 01:41:38;;;;;;;1.33;0.60;;;;;;;;;;5024161;28;20103;-74
2021/08/02 01:44:04;;;;;;;0.93;0.50;;;;;;;;;;5022731;28;20065;-74
2021/08/02 01:46:38;;;;;;;1.33;0.60;;;;;;;;;;5022065;28;20065;-74
2021/08/02 01:49:24;;;;;;;1.85;0.60;;;;;;;;;;5022745;28;20057;-73
2021/08/02 01:51:52;;;;;;;2.67;0.60;;;;;;;;;;5053162;28;20080;-75
2021/08/02 01:54:37;;;;;;;5.93;1.00;;;;;;;;;;5021069;28;20592;-75
2021/08/02 01:57:03;;;;;;;1.20;0.60;;;;;;;;;;5022405;28;20366;-75
2021/08/02 01:59:34;;;;;;;2.45;0.60;;;;;;;;;;5024091;28;20546;-74
2021/08/02 02:02:08;;;;;;;1.13;0.55;;;;;;;;;;5022997;28;20433;-74
2021/08/02 02:04:40;;;;;;;0.90;0.65;;;;;;;;;;5019739;28;21305;-74
2021/08/02 02:07:08;;;;;;;2.00;0.70;;;;;;;;;;5021927;28;20694;-75
2021/08/02 02:09:36;;;;;;;2.45;0.77;;;;;;;;;;5023783;28;20692;-74
2021/08/02 02:12:03;;;;;;;1.45;0.70;;;;;;;;;;5020181;28;20754;-74
2021/08/02 02:14:32;;;;;;;1.55;0.70;;;;;;;;;;5054018;28;20061;-74
2021/08/02 02:17:01;;;;;;;1.83;0.50;;;;;;;;;;5022540;28;20504;-74
2021/08/02 02:19:28;;;;;;;1.48;0.60;;;;;;;;;;5021119;28;21529;-74
2021/08/02 02:21:56;;;;;;;1.65;0.80;;;;;;;;;;5052910;28;20116;-74
2021/08/02 02:24:23;;;;;;;1.58;0.70;;;;;;;;;;5021808;28;20181;-75
2021/08/02 02:26:49;;;;;;;2.10;0.60;;;;;;;;;;5023543;28;20072;-74
2021/08/02 02:29:17;;;;;;;1.92;0.70;;;;;;;;;;5023004;28;20100;-73
2021/08/02 02:31:46;;;;;;;1.48;0.70;;;;;;;;;;5023603;28;20052;-74
2021/08/02 02:34:14;;;;;;;1.73;0.50;;;;;;;;;;5019079;28;20137;-74
2021/08/02 02:36:41;;;;;;;1.38;0.63;;;;;;;;;;5022747;28;20053;-74
2021/08/02 02:39:08;;;;;;;1.48;0.63;;;;;;;;;;5021032;28;20069;-75
2021/08/02 02:41:35;;;;;;;3.42;0.60;;;;;;;;;;5022360;28;20079;-74
2021/08/02 02:44:02;;;;;;;2.35;0.50;;;;;;;;;;5019940;28;20130;-74
2021/08/02 02:46:29;;;;;;;1.10;0.60;;;;;;;;;;5021545;28;20089;-74
2021/08/02 02:48:56;;;;;;;1.27;0.65;;;;;;;;;;5022795;28;20065;-74
2021/08/02 02:51:23;;;;;;;3.22;0.77;;;;;;;;;;5022048;28;20068;-74
2021/08/02 02:53:50;;;;;;;2.45;0.63;;;;;;;;;;5023026;28;20069;-74
2021/08/02 02:56:18;;;;;;;1.25;0.47;;;;;;;;;;5022322;28;20103;-74
2021/08/02 02:58:44;;;;;;;1.98;0.60;;;;;;;;;;5021080;28;20823;-73
2021/08/02 03:01:13;;;;;;;1.60;0.80;;;;;;;;;;5021619;28;20064;-73
2021/08/02 03:03:41;;;;;;;4.30;0.70;;;;;;;;;;5021061;28;20552;-74
2021/08/02 03:06:07;;;;;;;2.00;0.70;;;;;;;;;;5022226;28;20072;-74
2021/08/02 03:08:35;;;;;;;1.20;0.47;;;;;;;;;;5021277;28;20095;-74
2021/08/02 03:11:06;;;;;;;1.17;0.57;;;;;;;;;;5022862;28;20033;-74
2021/08/02 03:13:33;;;;;;;1.20;0.60;;;;;;;;;;5020253;28;20443;-75
2021/08/02 03:15:59;;;;;;;1.17;0.55;;;;;;;;;;5022315;28;20075;-74
2021/08/02 03:18:26;;;;;;;1.48;0.70;;;;;;;;;;5020999;28;20053;-75
2021/08/02 03:20:52;;;;;;;1.45;0.70;;;;;;;;;;5021281;28;20746;-74
2021/08/02 03:23:51;;;;;;;1.67;0.60;;;;;;;;;;5022135;28;20073;-75
2021/08/02 03:26:20;;;;;;;2.33;0.60;;;;;;;;;;5028497;28;20088;-75
2021/08/02 03:28:53;;;;;;;1.52;0.55;;;;;;;;;;5020683;28;20050;-75
2021/08/02 03:31:26;;;;;;;1.67;0.75;;;;;;;;;;5019477;28;20133;-75
2021/08/02 03:33:53;;;;;;;8.07;1.23;;;;;;;;;;5021579;28;20118;-75
2021/08/02 03:36:20;;;;;;;1.52;0.47;;;;;;;;;;5021864;28;20041;-75
2021/08/02 03:38:49;;;;;;;1.65;0.73;;;;;;;;;;5021362;28;20484;-75
2021/08/02 03:41:16;;;;;;;2.42;0.35;;;;;;;;;;5019148;28;20069;-75
2021/08/02 03:43:42;;;;;;;2.15;0.50;;;;;;;;;;5021132;28;20147;-74
2021/08/02 03:46:09;;;;;;;1.77;0.65;;;;;;;;;;5021204;28;20061;-75
2021/08/02 03:48:36;;;;;;;1.25;0.52;;;;;;;;;;5020271;28;20084;-75
2021/08/02 03:51:04;;;;;;;0.93;0.47;;;;;;;;;;5020954;28;20053;-78
2021/08/02 03:53:40;;;;;;;2.60;0.60;;;;;;;;;;5021270;28;20562;-75
2021/08/02 03:56:07;;;;;;;1.70;0.70;;;;;;;;;;5019544;28;20069;-76
2021/08/02 03:58:34;;;;;;;1.95;0.60;;;;;;;;;;5020704;28;20453;-75
2021/08/02 04:01:00;;;;;;;1.98;0.70;;;;;;;;;;5020894;28;20053;-75
2021/08/02 04:03:27;;;;;;;3.05;0.75;;;;;;;;;;5018872;28;20182;-75
2021/08/02 04:05:57;;;;;;;4.07;1.10;;;;;;;;;;5019999;28;20069;-73
2021/08/02 04:08:23;;;;;;;1.90;0.55;;;;;;;;;;5021248;28;20084;-73
2021/08/02 04:10:49;;;;;;;0.98;0.40;;;;;;;;;;5020417;28;20118;-73
2021/08/02 04:13:17;;;;;;;2.53;0.60;;;;;;;;;;5021455;28;20756;-73
2021/08/02 04:15:44;;;;;;;3.75;0.63;;;;;;;;;;5019897;28;20034;-74
2021/08/02 04:18:14;;;;;;;3.50;0.80;;;;;;;;;;5019803;28;20041;-74
2021/08/02 04:20:43;;;;;;;3.47;0.80;;;;;;;;;;5021886;28;20053;-74
2021/08/02 04:23:10;;;;;;;1.13;0.60;;;;;;;;;;5019817;28;20077;-75
2021/08/02 04:25:36;;;;;;;1.50;0.52;;;;;;;;;;5019743;28;20116;-73
2021/08/02 04:28:03;;;;;;;2.85;0.68;;;;;;;;;;5020809;28;20449;-75
2021/08/02 04:30:29;;;;;;;1.95;0.55;;;;;;;;;;5021796;28;20115;-74
2021/08/02 04:32:56;;;;;;;3.15;1.10;;;;;;;;;;5019480;28;20057;-74
2021/08/02 04:35:22;;;;;;;2.05;0.65;;;;;;;;;;5024123;28;20523;-74
2021/08/02 04:37:48;;;;;;;2.33;0.70;;;;;;;;;;5023714;28;20069;-74
2021/08/02 04:40:15;;;;;;;2.58;0.70;;;;;;;;;;5036867;28;20052;-74
2021/08/02 04:42:41;;;;;;;3.33;0.70;;;;;;;;;;5056583;28;20690;-74
2021/08/02 04:45:08;;;;;;;1.67;0.65;;;;;;;;;;5023929;28;20513;-74
2021/08/02 04:47:34;;;;;;;3.35;0.82;;;;;;;;;;5023757;28;20061;-73
2021/08/02 04:50:00;;;;;;;1.75;0.70;;;;;;;;;;5022178;28;20037;-74
2021/08/02 04:52:27;;;;;;;1.67;0.70;;;;;;;;;;5024234;28;20434;-75
2021/08/02 04:54:53;;;;;;;3.83;0.73;;;;;;;;;;5024525;28;20076;-75
2021/08/02 04:57:20;;;;;;;2.22;1.25;;;;;;;;;;5024048;28;20135;-76
2021/08/02 04:59:46;;;;;;;2.38;0.90;;;;;;;;;;5024296;28;20088;-74
2021/08/02 05:02:12;;;;;;;2.40;0.80;;;;;;;;;;5021779;28;20882;-75
2021/08/02 05:04:39;;;;;;;2.95;0.70;;;;;;;;;;5024374;28;20508;-75
2021/08/02 05:07:05;;;;;;;2.08;0.70;;;;;;;;;;5023056;28;20061;-75
2021/08/02 05:09:32;;;;;;;3.60;0.80;;;;;;;;;;5024572;28;20077;-75
2021/08/02 05:11:58;;;;;;;2.85;0.93;;;;;;;;;;5023984;28;20057;-75
2021/08/02 05:14:24;;;;;;;2.10;0.90;;;;;;;;;;5022443;28;20061;-75
2021/08/02 05:16:51;;;;;;;2.65;1.00;;;;;;;;;;5022731;28;20060;-75
2021/08/02 05:19:17;;;;;;;10.73;1.42;;;;;;;;;;5022309;28;20093;-75
2021/08/02 05:21:44;;;;;;;4.32;1.23;;;;;;;;;;5053974;28;20559;-74
2021/08/02 05:24:10;;;;;;;2.55;0.80;;;;;;;;;;5022191;28;20065;-75
2021/08/02 05:26:36;;;;;;;2.90;1.02;;;;;;;;;;5020983;28;20053;-75
2021/08/02 05:29:03;;;;;;;2.83;0.95;;;;;;;;;;5023852;28;20064;-74
2021/08/02 05:31:29;;;;;;;8.23;0.80;;;;;;;;;;5022321;28;20057;-75
2021/08/02 05:33:55;;;;;;;2.45;0.73;;;;;;;;;;5053579;28;20112;-74
2021/08/02 05:36:22;;;;;;;2.90;0.98;;;;;;;;;;5021463;28;20064;-75
2021/08/02 05:38:48;;;;;;;3.55;0.80;;;;;;;;;;5022477;28;20068;-74
2021/08/02 05:41:15;;;;;;;1.90;0.90;;;;;;;;;;5022377;28;20509;-75
2021/08/02 05:43:41;;;;;;;2.00;0.80;;;;;;;;;;5022966;28;20065;-74
2021/08/02 05:46:08;;;;;;;4.90;0.93;;;;;;;;;;5018778;28;20087;-74
2021/08/02 05:48:34;;;;;;;3.17;1.00;;;;;;;;;;5022307;28;20060;-74
2021/08/02 05:51:01;;;;;;;3.47;0.98;;;;;;;;;;5023329;28;20080;-74
2021/08/02 05:53:28;;;;;;;3.00;1.05;;;;;;;;;;5022862;28;20135;-74
2021/08/02 05:55:55;;;;;;;2.78;0.80;;;;;;;;;;5021922;28;20068;-74
2021/08/02 05:58:22;;;;;;;3.70;0.98;;;;;;;;;;5022785;28;20057;-74
2021/08/02 06:00:48;;;;;;;4.03;0.95;;;;;;;;;;5024320;28;20500;-75
2021/08/02 06:03:14;;;;;;;2.65;0.93;;;;;;;;;;5021402;28;20205;-74
2021/08/02 06:05:41;;;;;;;4.30;1.17;;;;;;;;;;5022628;28;20106;-74
2021/08/02 06:08:07;;;;;;;5.35;1.00;;;;;;;;;;5022320;28;20139;-75
2021/08/02 06:10:34;;;;;;;4.07;0.90;;;;;;;;;;5021363;28;20079;-76
2021/08/02 06:13:00;;;;;;;2.13;0.93;;;;;;;;;;5021157;28;20684;-76
2021/08/02 06:15:26;;;;;;;3.60;1.13;;;;;;;;;;5020065;28;20133;-75
2021/08/02 06:17:53;;;;;;;2.00;0.75;;;;;;;;;;5021959;28;20064;-76
2021/08/02 06:20:19;;;;;;;5.10;1.40;;;;;;;;;;5051570;28;20528;-75
2021/08/02 06:22:46;;;;;;;3.70;1.02;;;;;;;;;;5021747;28;20076;-76
2021/08/02 06:25:12;;;;;;;3.53;1.00;;;;;;;;;;5021409;28;20091;-75
2021/08/02 06:27:38;;;;;;;2.72;1.30;;;;;;;;;;5023491;28;20061;-75
2021/08/02 06:30:05;;;;;;;3.72;1.30;;;;;;;;;;5019079;28;20064;-75
2021/08/02 06:32:32;;;;;;;6.68;1.10;;;;;;;;;;5021767;28;20075;-75
2021/08/02 06:34:58;;;;;;;3.55;1.00;;;;;;;;;;5023236;28;20064;-75
2021/08/02 06:37:27;;;;;;;2.45;0.93;;;;;;;;;;5021433;28;20065;-75
2021/08/02 06:39:53;;;;;;;2.75;0.90;;;;;;;;;;5020054;28;20743;-75
2021/08/02 06:42:20;;;;;;;4.13;1.00;;;;;;;;;;5019777;28;20085;-74
2021/08/02 06:44:46;;;;;;;7.20;1.27;;;;;;;;;;5020537;28;20065;-74
2021/08/02 06:47:13;;;;;;;5.95;1.08;;;;;;;;;;5049901;28;20037;-74
2021/08/02 06:49:40;;;;;;;5.53;0.77;;;;;;;;;;5019831;28;20057;-74
2021/08/02 06:52:06;;;;;;;4.63;1.15;;;;;;;;;;5021360;28;20068;-74
2021/08/02 06:54:33;;;;;;;3.13;1.00;;;;;;;;;;5022381;28;20658;-74
2021/08/02 06:56:59;;;;;;;3.13;1.08;;;;;;;;;;5021454;28;20069;-74
2021/08/02 06:59:26;;;;;;;4.85;1.10;;;;;;;;;;5019764;28;20445;-74
2021/08/02 07:01:52;;;;;;;1.80;0.73;;;;;;;;;;5022326;28;20505;-73
2021/08/02 07:04:18;;;;;;;3.83;0.93;;;;;;;;;;5021391;28;20133;-74
2021/08/02 07:06:45;;;;;;;3.15;1.00;;;;;;;;;;5022518;28;20057;-73
2021/08/02 07:09:11;;;;;;;2.85;1.20;;;;;;;;;;5021577;28;20076;-74
2021/08/02 07:11:38;;;;;;;4.97;1.17;;;;;;;;;;5021186;28;20065;-73
2021/08/02 07:14:04;;;;;;;2.25;0.98;;;;;;;;;;5019549;28;20045;-75
2021/08/02 07:16:31;;;;;;;2.17;0.80;;;;;;;;;;5019711;28;20053;-74
2021/08/02 07:18:57;;;;;;;4.90;1.20;;;;;;;;;;5021741;28;20061;-75
2021/08/02 07:21:25;;;;;;;3.80;0.90;;;;;;;;;;5021346;28;21642;-75
2021/08/02 07:23:51;;;;;;;3.95;1.02;;;;;;;;;;5021992;28;20087;-76
2021/08/02 07:26:18;;;;;;;5.97;0.90;;;;;;;;;;5021232;28;20468;-76
2021/08/02 07:28:44;;;;;;;3.13;1.02;;;;;;;;;;5020878;28;20649;-76
2021/08/02 07:31:10;;;;;;;2.33;0.93;;;;;;;;;;5018917;28;20077;-77
2021/08/02 07:33:38;;;;;;;4.68;1.08;;;;;;;;;;5020500;28;20053;-74
2021/08/02 07:36:07;;;;;;;4.60;1.67;;;;;;;;;;5018104;28;20040;-75
2021/08/02 07:38:34;;;;;;;3.35;0.98;;;;;;;;;;5021575;28;20053;-75
2021/08/02 07:41:01;;;;;;;2.50;0.95;;;;;;;;;;5020408;28;20350;-75
2021/08/02 07:43:27;;;;;;;2.28;0.88;;;;;;;;;;5019363;28;20061;-74
2021/08/02 07:45:54;;;;;;;5.38;1.08;;;;;;;;;;5019748;28;20519;-75
2021/08/02 07:48:20;;;;;;;3.40;0.82;;;;;;;;;;5018865;28;20057;-75
2021/08/02 07:50:47;;;;;;;3.20;0.82;;;;;;;;;;5021150;28;20057;-75
2021/08/02 07:53:13;;;;;;;2.20;0.80;;;;;;;;;;5021356;28;20069;-75
2021/08/02 07:55:39;;;;;;;2.42;0.80;;;;;;;;;;5018824;28;20069;-75
2021/08/02 07:58:09;;;;;;;4.63;1.23;;;;;;;;;;5019076;28;20195;-76
2021/08/02 08:00:36;;;;;;;3.63;0.90;;;;;;;;;;5022374;28;20158;-75
2021/08/02 08:03:02;;;;;;;4.65;0.93;;;;;;;;;;5018596;28;20077;-75
2021/08/02 08:05:29;;;;;;;2.42;1.00;;;;;;;;;;5019485;28;20073;-75
2021/08/02 08:07:55;;;;;;;3.05;0.98;;;;;;;;;;5021577;28;20056;-75
2021/08/02 08:10:24;;;;;;;4.32;0.90;;;;;;;;;;5023803;28;20061;-75
2021/08/02 08:12:51;;;;;;;2.88;0.90;;;;;;;;;;5024571;28;20065;-74
2021/08/02 08:15:18;;;;;;;3.08;0.98;;;;;;;;;;5023090;28;20061;-75
2021/08/02 08:17:45;;;;;;;4.03;0.68;;;;;;;;;;5025250;28;20102;-75
2021/08/02 08:20:12;;;;;;;2.05;0.60;;;;;;;;;;5042660;28;20156;-73
2021/08/02 08:22:38;;;;;;;2.70;0.60;;;;;;;;;;5025092;28;20764;-73
2021/08/02 08:25:05;;;;;;;3.58;0.88;;;;;;;;;;5023989;28;20069;-76
2021/08/02 08:27:32;;;;;;;5.03;1.00;;;;;;;;;;5024911;28;20070;-75
2021/08/02 08:29:59;;;;;;;2.97;0.75;;;;;;;;;;5023831;28;20053;-74
2021/08/02 08:32:25;;;;;;;4.85;1.20;;;;;;;;;;5023026;28;20099;-75
2021/08/02 08:34:52;;;;;;;2.70;0.90;;;;;;;;;;5023582;28;20115;-75
2021/08/02 08:37:18;;;;;;;2.65;0.80;;;;;;;;;;5023866;28;20509;-73
2021/08/02 08:39:45;;;;;;;3.95;1.08;;;;;;;;;;5024751;28;20061;-74
2021/08/02 08:42:13;;;;;;;3.10;0.90;;;;;;;;;;5037949;28;20068;-73
2021/08/02 08:44:39;;;;;;;4.05;0.73;;;;;;;;;;5023032;28;20098;-73
2021/08/02 08:47:05;;;;;;;2.28;0.70;;;;;;;;;;5020250;28;20050;-74
2021/08/02 08:49:32;;;;;;;5.30;1.10;;;;;;;;;;5023286;28;20064;-75
2021/08/02 08:51:58;;;;;;;3.28;1.02;;;;;;;;;;5025045;28;20497;-73
2021/08/02 08:54:25;;;;;;;8.40;1.20;;;;;;;;;;5021449;28;20069;-74
2021/08/02 08:56:52;;;;;;;1.58;0.60;;;;;;;;;;5024377;28;20072;-74
2021/08/02 08:59:19;;;;;;;4.28;1.02;;;;;;;;;;5012504;28;20065;-76
2021/08/02 09:01:45;;;;;;;2.83;0.98;;;;;;;;;;5025618;28;20069;-75
2021/08/02 09:04:12;;;;;;;4.10;0.57;;;;;;;;;;5022547;28;20076;-75
2021/08/02 09:06:48;;;;;;;3.25;0.80;;;;;;;;;;5056126;28;20455;-75
2021/08/02 09:09:28;;;;;;;6.07;1.25;;;;;;;;;;5021696;28;20509;-75
2021/08/02 09:12:04;;;;;;;4.15;1.00;;;;;;;;;;5024643;28;20065;-74
2021/08/02 09:14:31;;;;;;;2.60;0.80;;;;;;;;;;5020502;28;20332;-76
2021/08/02 09:17:00;;;;;;;3.05;0.80;;;;;;;;;;5022414;28;20061;-75
2021/08/02 09:19:38;;;;;;;3.47;0.82;;;;;;;;;;5022584;28;20539;-75
2021/08/02 09:22:04;;;;;;;4.18;0.95;;;;;;;;;;5021728;28;20060;-78
2021/08/02 09:24:32;;;;;;;3.47;0.95;;;;;;;;;;5024021;28;20053;-74
2021/08/02 09:26:58;;;;;;;4.55;1.17;;;;;;;;;;5023271;28;20156;-74
2021/08/02 09:29:28;;;;;;;3.50;0.70;;;;;;;;;;5012523;28;20539;-74
2021/08/02 09:31:54;;;;;;;2.60;0.80;;;;;;;;;;5020935;28;20061;-75
2021/08/02 09:34:22;;;;;;;4.28;1.25;;;;;;;;;;5021026;28;20065;-75
2021/08/02 09:36:58;;;;;;;4.25;1.23;;;;;;;;;;5022649;28;20458;-75
2021/08/02 09:39:32;;;;;;;4.97;1.00;;;;;;;;;;5023561;28;20060;-75
2021/08/02 09:42:06;;;;;;;5.13;1.10;;;;;;;;;;5036731;28;20061;-75
2021/08/02 09:44:32;;;;;;;5.30;0.98;;;;;;;;;;5051483;28;21513;-75
2021/08/02 09:47:00;;;;;;;3.05;0.70;;;;;;;;;;5021653;28;20069;-75
2021/08/02 09:49:27;;;;;;;2.33;0.70;;;;;;;;;;5048641;28;20709;-75
2021/08/02 09:51:54;;;;;;;2.72;1.00;;;;;;;;;;5020659;28;20061;-75
2021/08/02 09:54:27;;;;;;;5.95;0.93;;;;;;;;;;5021741;28;20057;-75
2021/08/02 09:56:54;;;;;;;2.58;0.80;;;;;;;;;;5053900;28;20073;-75
2021/08/02 09:59:21;;;;;;;6.20;0.93;;;;;;;;;;5021282;28;20045;-75
2021/08/02 10:01:52;;;;;;;5.28;1.30;;;;;;;;;;5023039;28;20061;-74
2021/08/02 10:04:18;;;;;;;4.57;0.80;;;;;;;;;;5019812;28;20134;-73
2021/08/02 10:06:45;;;;;;;4.45;1.10;;;;;;;;;;5051232;28;20485;-72
2021/08/02 10:09:12;;;;;;;10.27;1.30;;;;;;;;;;5021036;28;20069;-75
2021/08/02 10:11:39;;;;;;;5.80;1.10;;;;;;;;;;5025725;28;20065;-77
2021/08/02 10:14:10;;;;;;;5.45;1.20;;;;;;;;;;5022530;28;20033;-73
2021/08/02 10:16:38;;;;;;;6.03;1.20;;;;;;;;;;5018641;28;20064;-74
2021/08/02 10:19:06;;;;;;;7.85;1.55;;;;;;;;;;5034177;28;20065;-75
2021/08/02 10:21:55;;;;;;;5.95;1.50;;;;;;;;;;5055455;28;20115;-74
2021/08/02 10:24:22;;;;;;;3.88;1.23;;;;;;;;;;5019677;28;20364;-75
2021/08/02 10:26:57;;;;;;;12.60;1.77;;;;;;;;;;5022173;28;20494;-74
2021/08/02 10:29:24;;;;;;;4.05;0.80;;;;;;;;;;5020276;28;20075;-76
2021/08/02 10:31:51;;;;;;;10.60;1.48;;;;;;;;;;5021748;28;20128;-77
2021/08/02 10:34:19;;;;;;;5.15;0.80;;;;;;;;;;5019590;28;20069;-76
2021/08/02 10:36:57;;;;;;;4.28;1.20;;;;;;;;;;5022027;28;20110;-75
2021/08/02 10:39:24;;;;;;;4.75;0.95;;;;;;;;;;5022280;28;20076;-76
2021/08/02 10:41:50;;;;;;;4.32;1.15;;;;;;;;;;5022079;28;20041;-76
2021/08/02 10:44:19;;;;;;;4.60;0.82;;;;;;;;;;5020787;28;20061;-74
2021/08/02 10:46:46;;;;;;;3.85;0.80;;;;;;;;;;5021906;28;20076;-76
2021/08/02 10:49:13;;;;;;;3.40;0.90;;;;;;;;;;5020411;28;20041;-75
2021/08/02 10:51:56;;;;;;;4.53;1.05;;;;;;;;;;5022424;28;20061;-76
2021/08/02 10:54:23;;;;;;;8.70;1.38;;;;;;;;;;5020773;28;20536;-76
2021/08/02 10:56:49;;;;;;;2.30;0.70;;;;;;;;;;5024900;28;20110;-77
2021/08/02 10:59:19;;;;;;;12.00;1.00;;;;;;;;;;5021685;28;20064;-74
2021/08/02 11:01:49;;;;;;;3.25;0.70;;;;;;;;;;5022281;28;20125;-77
2021/08/02 11:04:17;;;;;;;17.97;1.30;;;;;;;;;;5018599;28;20135;-72
2021/08/02 11:06:46;;;;;;;3.83;0.90;;;;;;;;;;5023036;28;20072;-75
2021/08/02 11:09:12;;;;;;;5.45;1.00;;;;;;;;;;5021350;28;20073;-76
2021/08/02 11:11:38;;;;;;;6.93;1.40;;;;;;;;;;5024336;28;20413;-73
2021/08/02 11:14:06;;;;;;;2.83;1.00;;;;;;;;;;5025525;28;20124;-73
2021/08/02 11:16:43;;;;;;;6.88;0.98;;;;;;;;;;5025670;28;20037;-75
2021/08/02 11:19:16;;;;;;;7.75;1.20;;;;;;;;;;5051579;28;20098;-75
2021/08/02 11:21:45;;;;;;;6.95;1.20;;;;;;;;;;5052840;28;20077;-75
2021/08/02 11:24:12;;;;;;;6.70;1.13;;;;;;;;;;5020975;28;20576;-75
2021/08/02 11:26:45;;;;;;;14.68;1.63;;;;;;;;;;5022650;28;20061;-74
2021/08/02 11:29:17;;;;;;;4.72;1.30;;;;;;;;;;5018938;28;20065;-76
2021/08/02 11:31:52;;;;;;;4.93;0.82;;;;;;;;;;5020584;28;20069;-76
2021/08/02 11:34:19;;;;;;;5.13;0.90;;;;;;;;;;5020379;28;20037;-76
2021/08/02 11:36:46;;;;;;;7.45;1.15;;;;;;;;;;5019714;28;20489;-76
2021/08/02 11:39:15;;;;;;;5.47;1.17;;;;;;;;;;5025355;28;20969;-75
2021/08/02 11:41:42;;;;;;;2.80;0.90;;;;;;;;;;5033772;28;20126;-77
2021/08/02 11:44:08;;;;;;;5.25;1.08;;;;;;;;;;5024994;28;20069;-76
2021/08/02 11:46:37;;;;;;;6.45;0.95;;;;;;;;;;5026608;28;20489;-76
2021/08/02 11:49:04;;;;;;;8.75;1.88;;;;;;;;;;5025299;28;20725;-77
2021/08/02 11:51:30;;;;;;;4.00;1.05;;;;;;;;;;5024571;28;20395;-75
2021/08/02 11:53:58;;;;;;;2.20;0.73;;;;;;;;;;5023682;28;20700;-75
2021/08/02 11:56:31;;;;;;;6.53;1.30;;;;;;;;;;5045157;28;20456;-75
2021/08/02 11:58:58;;;;;;;5.90;1.00;;;;;;;;;;5022131;28;20061;-73
2021/08/02 12:01:24;;;;;;;6.47;1.23;;;;;;;;;;5024913;28;20073;-77
2021/08/02 12:03:56;;;;;;;6.05;1.30;;;;;;;;;;5024129;28;20065;-75
2021/08/02 12:06:22;;;;;;;8.00;1.27;;;;;;;;;;5014109;28;20475;-75
2021/08/02 12:08:50;;;;;;;4.72;1.00;;;;;;;;;;5025056;28;20076;-75
2021/08/02 12:11:17;;;;;;;5.78;1.13;;;;;;;;;;5022064;28;20061;-75
2021/08/02 12:13:45;;;;;;;4.88;0.75;;;;;;;;;;5025039;28;20447;-74
2021/08/02 12:16:12;;;;;;;5.82;1.10;;;;;;;;;;5021597;28;20136;-74
2021/08/02 12:18:40;;;;;;;5.55;1.13;;;;;;;;;;5039487;28;20152;-74
2021/08/02 12:21:11;;;;;;;6.28;1.50;;;;;;;;;;5025195;28;20076;-75
2021/08/02 12:23:37;;;;;;;4.80;0.90;;;;;;;;;;5037480;28;20067;-76
2021/08/02 12:26:17;;;;;;;6.45;1.38;;;;;;;;;;5050870;28;20044;-76
2021/08/02 12:28:43;;;;;;;3.60;0.90;;;;;;;;;;5039653;28;20088;-75
2021/08/02 12:31:14;;;;;;;4.45;1.38;;;;;;;;;;5023159;28;20068;-75
2021/08/02 12:33:40;;;;;;;3.50;1.00;;;;;;;;;;5039336;28;20037;-75
2021/08/02 12:36:07;;;;;;;4.82;1.10;;;;;;;;;;5023949;28;20061;-75
2021/08/02 12:38:33;;;;;;;4.38;1.05;;;;;;;;;;5026506;28;20040;-74
2021/08/02 12:41:02;;;;;;;4.30;1.20;;;;;;;;;;5024957;28;20056;-71
2021/08/02 12:43:31;;;;;;;3.72;1.10;;;;;;;;;;5020977;28;20122;-72
2021/08/02 12:45:58;;;;;;;4.88;1.27;;;;;;;;;;5022461;28;20053;-71
2021/08/02 12:48:24;;;;;;;4.90;1.63;;;;;;;;;;5023428;28;20120;-71
2021/08/02 12:50:50;;;;;;;3.35;1.02;;;;;;;;;;5024110;28;20143;-70
2021/08/02 12:53:17;;;;;;;3.47;1.33;;;;;;;;;;5022839;28;20064;-70
2021/08/02 12:55:43;;;;;;;4.30;1.02;;;;;;;;;;5023601;28;20785;-70
2021/08/02 12:58:12;;;;;;;5.47;1.30;;;;;;;;;;5023080;28;20099;-71
2021/08/02 13:00:38;;;;;;;4.38;1.20;;;;;;;;;;5025318;28;20780;-70
2021/08/02 13:03:05;;;;;;;4.80;1.05;;;;;;;;;;5022708;28;20083;-71
2021/08/02 13:05:31;;;;;;;3.08;1.10;;;;;;;;;;5021158;28;20114;-71
2021/08/02 13:07:58;;;;;;;3.58;1.30;;;;;;;;;;5025754;28;20489;-72
2021/08/02 13:10:27;;;;;;;4.35;1.10;;;;;;;;;;5024081;28;20057;-71
2021/08/02 13:12:54;;;;;;;3.03;1.10;;;;;;;;;;5024392;28;20474;-72
2021/08/02 13:15:21;;;;;;;2.35;0.88;;;;;;;;;;5056652;28;20061;-71
2021/08/02 13:17:47;;;;;;;2.80;0.93;;;;;;;;;;5022256;28;20053;-71
2021/08/02 13:20:13;;;;;;;1.75;0.70;;;;;;;;;;5022758;28;20072;-72
2021/08/02 13:23:07;;;;;;;3.35;0.82;;;;;;;;;;5024061;28;20065;-71
2021/08/02 13:28:12;;;;;;;3.05;0.80;;;;;;;;;;5022230;28;20068;-72
2021/08/02 13:30:41;;;;;;;2.88;1.08;;;;;;;;;;5025262;28;20059;-71
2021/08/02 13:33:08;;;;;;;3.70;0.90;;;;;;;;;;5022101;28;20123;-72
2021/08/02 13:35:35;;;;;;;3.95;1.20;;;;;;;;;;5024031;28;20052;-71
2021/08/02 13:38:01;;;;;;;4.35;1.42;;;;;;;;;;5024126;28;20110;-71
2021/08/02 13:40:27;;;;;;;2.67;0.98;;;;;;;;;;5022565;28;20041;-71
2021/08/02 13:42:54;;;;;;;3.85;1.20;;;;;;;;;;5021959;28;20071;-72
2021/08/02 13:45:20;;;;;;;2.63;1.00;;;;;;;;;;5022188;28;20891;-72
2021/08/02 13:47:47;;;;;;;4.95;1.15;;;;;;;;;;5024065;28;20065;-71
2021/08/02 13:50:13;;;;;;;2.58;0.90;;;;;;;;;;5023143;28;20584;-72
2021/08/02 13:52:39;;;;;;;2.97;0.90;;;;;;;;;;5024513;28;20072;-71
2021/08/02 13:55:06;;;;;;;2.58;0.90;;;;;;;;;;5020839;28;20511;-73
2021/08/02 13:57:33;;;;;;;2.65;1.08;;;;;;;;;;5019651;28;20065;-72
2021/08/02 14:00:00;;;;;;;4.78;1.00;;;;;;;;;;5022003;28;20570;-72
2021/08/02 14:02:26;;;;;;;5.32;1.63;;;;;;;;;;5021852;28;20115;-73
2021/08/02 14:04:53;;;;;;;4.70;1.10;;;;;;;;;;5023166;28;20073;-72
2021/08/02 14:07:19;;;;;;;2.22;0.60;;;;;;;;;;5023587;28;20130;-73
2021/08/02 14:09:46;;;;;;;3.55;0.98;;;;;;;;;;5021973;28;20458;-72
2021/08/02 14:12:12;;;;;;;3.25;0.95;;;;;;;;;;5022683;28;20095;-73
2021/08/02 14:14:40;;;;;;;2.95;0.77;;;;;;;;;;5022908;28;20478;-73
2021/08/02 14:17:07;;;;;;;1.45;0.57;;;;;;;;;;5038782;28;20127;-74
2021/08/02 14:19:38;;;;;;;4.72;0.90;;;;;;;;;;5021585;28;20065;-72
2021/08/02 14:22:05;;;;;;;4.25;0.82;;;;;;;;;;5022288;28;20099;-73
2021/08/02 14:24:31;;;;;;;3.97;0.95;;;;;;;;;;5018999;28;20154;-73
2021/08/02 14:26:59;;;;;;;5.72;0.80;;;;;;;;;;5019992;28;20516;-73
2021/08/02 14:29:25;;;;;;;4.47;1.08;;;;;;;;;;5020429;28;20065;-73
2021/08/02 14:31:52;;;;;;;1.95;0.70;;;;;;;;;;5020978;28;20076;-73
2021/08/02 14:34:18;;;;;;;4.40;1.10;;;;;;;;;;5018399;28;20517;-73
2021/08/02 14:36:45;;;;;;;4.97;0.93;;;;;;;;;;5021082;28;20068;-74
2021/08/02 14:39:13;;;;;;;3.08;0.70;;;;;;;;;;5021954;28;20199;-74
2021/08/02 14:41:44;;;;;;;1.83;0.70;;;;;;;;;;5022002;28;20581;-73
2021/08/02 14:44:12;;;;;;;2.55;0.70;;;;;;;;;;5021392;28;20489;-74
2021/08/02 14:46:39;;;;;;;9.38;1.30;;;;;;;;;;5021239;28;20694;-75
2021/08/02 14:49:07;;;;;;;4.47;1.30;;;;;;;;;;5020324;28;20098;-75
2021/08/02 14:51:37;;;;;;;3.72;0.82;;;;;;;;;;5021069;28;22253;-75